Time;durP1;ratioP1;P1;durP2;ratioP2;P2;SDS_P1;SDS_P2;PMS_P1;PMS_P2;Temp;Humidity;BMP_temperature;BMP_pressure;BME280_temperature;BME280_humidity;BME280_pressure;Samples;Min_cycle;Max_cycle;Signal;HPM_P1;HPM_P2
2022/11/04 00:01:48;;;;;;;2.00;1.10;;;12.10;99.90;;;;;;5065639;28;20455;-79
2022/11/04 00:04:18;;;;;;;2.07;1.20;;;12.10;99.90;;;;;;5067787;28;20488;-81
2022/11/04 00:06:45;;;;;;;2.87;1.00;;;12.10;99.90;;;;;;5068450;28;20517;-80
2022/11/04 00:09:16;;;;;;;1.70;1.00;;;12.00;99.90;;;;;;5065083;28;20571;-80
2022/11/04 00:14:29;;;;;;;1.90;1.00;;;11.80;99.90;;;;;;5065836;28;20481;-80
2022/11/04 00:30:46;;;;;;;2.33;1.13;;;11.70;99.90;;;;;;5060503;28;21048;-81
2022/11/04 00:33:24;;;;;;;1.90;1.20;;;11.70;99.90;;;;;;5059788;28;20557;-79
2022/11/04 00:35:54;;;;;;;2.20;1.00;;;11.70;99.90;;;;;;5059629;28;20432;-80
2022/11/04 00:38:21;;;;;;;2.10;1.17;;;11.70;99.90;;;;;;5060227;28;20500;-79
2022/11/04 00:40:48;;;;;;;3.03;1.20;;;11.70;99.90;;;;;;5063813;28;20470;-78
2022/11/04 00:43:15;;;;;;;2.43;1.20;;;11.80;99.90;;;;;;5063004;28;20534;-79
2022/11/04 00:45:42;;;;;;;2.17;1.13;;;11.70;99.90;;;;;;5064624;28;20528;-78
2022/11/04 00:48:09;;;;;;;1.83;1.20;;;11.80;99.90;;;;;;5062803;28;20544;-78
2022/11/04 00:50:36;;;;;;;2.00;1.03;;;11.80;99.90;;;;;;5063346;28;20531;-79
2022/11/04 00:53:04;;;;;;;2.27;1.20;;;11.90;99.90;;;;;;5060613;28;21032;-81
2022/11/04 00:55:31;;;;;;;2.40;1.10;;;11.80;99.90;;;;;;5059064;28;20488;-79
2022/11/04 00:57:59;;;;;;;3.10;1.13;;;11.80;99.90;;;;;;5058758;28;20472;-79
2022/11/04 01:00:26;;;;;;;1.63;0.93;;;11.80;99.90;;;;;;5057377;28;20457;-80
2022/11/04 01:02:53;;;;;;;3.87;1.33;;;11.80;99.90;;;;;;5057434;28;20445;-81
2022/11/04 01:05:20;;;;;;;2.37;0.93;;;11.80;99.90;;;;;;5057210;28;20447;-80
2022/11/04 01:07:47;;;;;;;2.43;1.00;;;11.90;99.90;;;;;;5056346;28;20480;-79
2022/11/04 01:10:15;;;;;;;1.87;1.20;;;11.90;99.90;;;;;;5057310;28;20982;-78
2022/11/04 01:12:42;;;;;;;2.10;1.10;;;11.90;99.90;;;;;;5057014;28;20825;-78
2022/11/04 01:15:10;;;;;;;2.73;1.50;;;12.00;99.90;;;;;;5056811;28;20488;-80
2022/11/04 01:17:36;;;;;;;2.30;1.30;;;11.90;99.90;;;;;;5058063;28;20529;-78
2022/11/04 01:20:03;;;;;;;3.10;1.30;;;11.90;99.90;;;;;;5057048;28;20536;-80
2022/11/04 01:22:30;;;;;;;2.23;1.30;;;11.90;99.90;;;;;;5058198;28;20449;-79
2022/11/04 01:24:57;;;;;;;3.17;1.57;;;11.90;99.90;;;;;;5058392;28;20454;-78
2022/11/04 01:27:25;;;;;;;2.77;1.93;;;11.90;99.90;;;;;;5059441;28;20547;-79
2022/11/04 01:29:52;;;;;;;3.00;1.50;;;11.90;99.90;;;;;;5058724;28;20457;-79
2022/11/04 01:32:19;;;;;;;2.20;1.57;;;11.90;99.90;;;;;;5059399;28;20452;-79
2022/11/04 01:34:46;;;;;;;2.10;1.43;;;11.80;99.90;;;;;;5056960;28;20514;-81
2022/11/04 01:37:13;;;;;;;2.50;1.83;;;11.90;99.90;;;;;;5061102;28;20460;-80
2022/11/04 01:39:40;;;;;;;2.30;1.57;;;11.80;99.90;;;;;;5060871;28;20685;-79
2022/11/04 01:42:07;;;;;;;2.63;1.63;;;11.90;99.90;;;;;;5062147;28;20492;-79
2022/11/04 01:44:51;;;;;;;3.33;2.20;;;11.80;99.90;;;;;;5061582;28;20451;-81
2022/11/04 01:47:21;;;;;;;2.87;2.00;;;11.80;99.90;;;;;;5061227;28;20533;-79
2022/11/04 01:49:53;;;;;;;5.50;1.90;;;11.80;99.90;;;;;;5059683;28;20954;-80
2022/11/04 01:52:27;;;;;;;2.67;1.80;;;11.80;99.90;;;;;;5060907;28;20543;-79
2022/11/04 01:54:59;;;;;;;3.00;2.10;;;11.80;99.90;;;;;;5061281;28;20509;-78
2022/11/04 01:57:32;;;;;;;3.47;2.10;;;11.80;99.90;;;;;;5061042;28;21013;-80
2022/11/04 02:00:04;;;;;;;3.57;1.90;;;11.70;99.90;;;;;;5060414;28;20453;-78
2022/11/04 02:02:31;;;;;;;2.70;2.10;;;11.70;99.90;;;;;;5060519;28;20437;-79
2022/11/04 02:04:57;;;;;;;3.40;1.90;;;11.60;99.90;;;;;;5060065;28;20453;-80
2022/11/04 02:07:24;;;;;;;2.43;1.70;;;11.60;99.90;;;;;;5057882;28;20829;-78
2022/11/04 02:09:52;;;;;;;3.30;2.20;;;11.60;99.90;;;;;;5059570;28;20540;-80
2022/11/04 02:15:05;;;;;;;3.20;1.83;;;11.60;99.90;;;;;;5059235;28;20464;-80
2022/11/04 02:17:52;;;;;;;4.53;2.17;;;11.70;99.90;;;;;;5059031;28;20486;-80
2022/11/04 02:20:35;;;;;;;4.20;2.50;;;11.70;99.90;;;;;;5060444;28;20523;-79
2022/11/04 02:23:47;;;;;;;3.87;2.40;;;11.70;99.90;;;;;;5062264;28;20444;-81
2022/11/04 02:26:51;;;;;;;3.03;2.00;;;11.70;99.90;;;;;;5060970;28;20816;-79
2022/11/04 02:29:45;;;;;;;5.57;2.80;;;11.70;99.90;;;;;;5059804;28;20480;-80
2022/11/04 02:32:19;;;;;;;7.53;2.70;;;11.70;99.90;;;;;;5059624;28;20443;-79
2022/11/04 02:34:56;;;;;;;3.17;1.93;;;11.70;99.90;;;;;;5060085;28;20950;-80
2022/11/04 02:37:31;;;;;;;2.60;1.70;;;11.60;99.90;;;;;;5060153;28;20490;-81
2022/11/04 02:40:08;;;;;;;2.60;1.87;;;11.60;99.90;;;;;;5059622;28;20444;-80
2022/11/04 02:42:42;;;;;;;3.70;2.10;;;11.50;99.90;;;;;;5058343;28;20927;-80
2022/11/04 02:45:18;;;;;;;4.90;2.10;;;11.50;99.90;;;;;;5058893;28;20447;-79
2022/11/04 02:47:49;;;;;;;3.80;1.87;;;11.50;99.90;;;;;;5058381;28;20898;-79
2022/11/04 02:50:23;;;;;;;4.43;1.77;;;11.60;99.90;;;;;;5059120;28;20434;-81
2022/11/04 02:52:56;;;;;;;2.63;1.90;;;11.60;99.90;;;;;;5060388;28;20441;-80
2022/11/04 02:55:27;;;;;;;4.30;1.80;;;11.60;99.90;;;;;;5060029;28;20469;-80
2022/11/04 02:57:57;;;;;;;2.47;1.67;;;11.60;99.90;;;;;;5059126;28;20904;-78
2022/11/04 03:00:26;;;;;;;4.37;1.80;;;11.50;99.90;;;;;;5058549;28;20489;-80
2022/11/04 03:02:57;;;;;;;3.43;2.17;;;11.60;99.90;;;;;;5058342;28;20463;-77
2022/11/04 03:05:28;;;;;;;3.03;2.10;;;11.60;99.90;;;;;;5058199;28;20456;-81
2022/11/04 03:07:58;;;;;;;4.73;1.60;;;11.50;99.90;;;;;;5055640;28;20558;-78
2022/11/04 03:10:33;;;;;;;3.60;1.67;;;11.50;99.90;;;;;;5059269;28;20477;-80
2022/11/04 03:13:06;;;;;;;2.40;1.47;;;11.50;99.90;;;;;;5059748;28;20500;-79
2022/11/04 03:15:37;;;;;;;3.33;1.63;;;11.50;99.90;;;;;;5059826;28;20478;-80
2022/11/04 03:18:18;;;;;;;3.80;1.67;;;11.30;99.90;;;;;;5059306;28;20536;-78
2022/11/04 03:20:48;;;;;;;2.83;1.40;;;11.40;99.90;;;;;;5059612;28;21028;-79
2022/11/04 03:23:15;;;;;;;6.40;1.80;;;11.40;99.90;;;;;;5058841;28;20456;-79
2022/11/04 03:25:46;;;;;;;4.07;1.73;;;11.30;99.90;;;;;;5059410;28;20527;-78
2022/11/04 03:28:25;;;;;;;3.03;1.27;;;11.30;99.90;;;;;;5059193;28;20481;-79
2022/11/04 03:30:56;;;;;;;4.70;1.43;;;11.30;99.90;;;;;;5059589;28;20454;-79
2022/11/04 03:33:27;;;;;;;3.50;1.50;;;11.30;99.90;;;;;;5060221;28;20429;-80
2022/11/04 03:35:54;;;;;;;2.83;1.47;;;11.20;99.90;;;;;;5060475;28;20494;-78
2022/11/04 03:38:22;;;;;;;5.57;1.53;;;11.20;99.90;;;;;;5058208;28;20469;-80
2022/11/04 03:40:49;;;;;;;5.10;1.40;;;11.10;99.90;;;;;;5059656;28;20451;-80
2022/11/04 03:43:20;;;;;;;4.50;1.43;;;11.10;99.90;;;;;;5057933;28;20448;-80
2022/11/04 03:45:47;;;;;;;2.70;1.10;;;11.10;99.90;;;;;;5058099;28;20887;-78
2022/11/04 03:48:16;;;;;;;3.40;1.30;;;11.10;99.90;;;;;;5057847;28;20560;-79
2022/11/04 03:50:46;;;;;;;3.00;1.30;;;11.10;99.90;;;;;;5057594;28;20532;-78
2022/11/04 03:53:15;;;;;;;6.30;1.87;;;11.00;99.90;;;;;;5059178;28;20433;-80
2022/11/04 03:55:51;;;;;;;2.43;1.13;;;11.00;99.90;;;;;;5058936;28;20490;-77
2022/11/04 03:58:29;;;;;;;3.80;1.40;;;11.00;99.90;;;;;;5057870;28;20555;-77
2022/11/04 04:01:01;;;;;;;5.90;1.60;;;11.00;99.90;;;;;;5056768;28;20455;-79
2022/11/04 04:03:33;;;;;;;3.97;1.37;;;11.00;99.90;;;;;;5057568;28;20467;-79
2022/11/04 04:06:09;;;;;;;4.70;2.30;;;11.00;99.90;;;;;;5056835;28;20461;-80
2022/11/04 04:08:39;;;;;;;4.60;1.40;;;11.00;99.90;;;;;;5057547;28;20497;-79
2022/11/04 04:11:13;;;;;;;3.30;1.03;;;11.00;99.90;;;;;;5058885;28;20438;-78
2022/11/04 04:13:49;;;;;;;3.50;1.10;;;11.00;99.90;;;;;;5058515;28;20826;-79
2022/11/04 04:16:20;;;;;;;2.50;1.47;;;11.00;99.90;;;;;;5057628;28;20472;-79
2022/11/04 04:18:51;;;;;;;5.07;1.97;;;10.90;99.90;;;;;;5058402;28;20472;-78
2022/11/04 04:21:22;;;;;;;3.60;1.30;;;10.90;99.90;;;;;;5059041;28;20932;-78
2022/11/04 04:29:23;;;;;;;3.70;1.37;;;11.00;99.90;;;;;;5054008;28;20533;-77
2022/11/04 04:31:52;;;;;;;6.23;1.37;;;10.90;99.90;;;;;;5054944;28;20439;-79
2022/11/04 04:34:23;;;;;;;6.27;1.63;;;10.80;99.90;;;;;;5054843;28;20482;-79
2022/11/04 04:36:55;;;;;;;3.60;1.50;;;10.80;99.90;;;;;;5053890;28;20589;-80
2022/11/04 04:44:59;;;;;;;7.53;1.60;;;10.80;99.90;;;;;;5056978;28;20451;-78
2022/11/04 04:47:29;;;;;;;5.17;1.33;;;10.90;99.90;;;;;;5057219;28;20475;-79
2022/11/04 04:49:59;;;;;;;4.53;1.37;;;10.80;99.90;;;;;;5055963;28;20425;-79
2022/11/04 04:52:29;;;;;;;3.60;1.23;;;10.80;99.90;;;;;;5056509;28;20895;-81
2022/11/04 04:54:56;;;;;;;4.93;1.70;;;10.80;99.90;;;;;;5056537;28;20480;-81
2022/11/04 04:57:23;;;;;;;7.90;1.90;;;10.80;99.90;;;;;;5056915;28;20515;-79
2022/11/04 04:59:50;;;;;;;3.27;1.30;;;10.80;99.90;;;;;;5056166;28;20454;-81
2022/11/04 05:02:17;;;;;;;5.30;1.60;;;10.80;99.90;;;;;;5057416;28;20530;-79
2022/11/04 05:04:44;;;;;;;3.70;1.60;;;10.80;99.90;;;;;;5056716;28;20454;-79
2022/11/04 05:07:12;;;;;;;7.17;1.33;;;10.80;99.90;;;;;;5054197;28;20446;-79
2022/11/04 05:09:39;;;;;;;6.23;1.93;;;10.90;99.90;;;;;;5053243;28;20929;-78
2022/11/04 05:12:06;;;;;;;2.53;1.20;;;10.90;99.90;;;;;;5053846;28;20451;-76
2022/11/04 05:14:33;;;;;;;4.80;1.50;;;10.90;99.90;;;;;;5054504;28;20457;-80
2022/11/04 05:16:59;;;;;;;5.03;1.37;;;10.90;99.90;;;;;;5053829;28;20494;-79
2022/11/04 05:19:26;;;;;;;6.67;1.30;;;10.90;99.90;;;;;;5052954;28;20475;-77
2022/11/04 05:21:53;;;;;;;4.90;1.60;;;10.90;99.90;;;;;;5054337;28;20458;-78
2022/11/04 05:24:21;;;;;;;3.87;1.33;;;10.90;99.90;;;;;;5054541;28;20835;-78
2022/11/04 05:26:48;;;;;;;10.37;1.87;;;11.00;99.90;;;;;;5053843;28;20455;-80
2022/11/04 05:29:15;;;;;;;5.10;1.40;;;10.90;99.90;;;;;;5053153;28;20479;-80
2022/11/04 05:31:41;;;;;;;7.60;2.40;;;11.00;99.90;;;;;;5054801;28;20459;-77
2022/11/04 05:34:10;;;;;;;9.30;1.87;;;11.00;99.90;;;;;;5055213;28;20948;-79
2022/11/04 05:36:37;;;;;;;5.60;1.60;;;11.00;99.90;;;;;;5054452;28;20992;-79
2022/11/04 05:39:05;;;;;;;5.03;1.60;;;11.00;99.90;;;;;;5055261;28;20474;-80
2022/11/04 05:41:33;;;;;;;6.57;1.70;;;10.90;99.90;;;;;;5056668;28;20990;-78
2022/11/04 05:44:03;;;;;;;4.43;1.63;;;10.90;99.90;;;;;;5056990;28;20456;-80
2022/11/04 05:46:30;;;;;;;3.70;1.80;;;10.90;99.90;;;;;;5056812;28;20529;-77
2022/11/04 05:48:57;;;;;;;4.30;2.03;;;10.90;99.90;;;;;;5055782;28;20912;-79
2022/11/04 05:51:26;;;;;;;2.83;1.47;;;10.90;99.90;;;;;;5053802;28;20443;-78
2022/11/04 05:53:54;;;;;;;3.67;1.60;;;11.00;99.90;;;;;;5054794;28;20842;-78
2022/11/04 05:56:20;;;;;;;4.33;1.30;;;11.00;99.90;;;;;;5056931;28;20488;-81
2022/11/04 05:58:49;;;;;;;7.43;1.60;;;11.10;99.90;;;;;;5062537;28;20476;-78
2022/11/04 06:01:28;;;;;;;4.97;1.60;;;11.10;99.90;;;;;;5050564;28;20459;-79
2022/11/04 06:03:56;;;;;;;5.03;1.60;;;11.00;99.90;;;;;;5043290;28;20458;-80
2022/11/04 06:06:24;;;;;;;4.83;1.70;;;11.00;99.90;;;;;;5046866;28;20539;-79
2022/11/04 06:08:51;;;;;;;2.83;1.50;;;11.10;99.90;;;;;;5058892;28;20899;-81
2022/11/04 06:11:19;;;;;;;4.80;1.60;;;11.10;99.90;;;;;;5057549;28;20532;-78
2022/11/04 06:13:46;;;;;;;3.63;1.70;;;11.10;99.90;;;;;;5055824;28;20539;-79
2022/11/04 06:16:14;;;;;;;4.70;1.70;;;11.20;99.90;;;;;;5044507;28;20484;-80
2022/11/04 06:18:41;;;;;;;3.03;1.40;;;11.20;99.90;;;;;;5053663;28;20474;-78
2022/11/04 06:21:10;;;;;;;2.80;1.23;;;11.20;99.90;;;;;;5052220;28;20956;-79
2022/11/04 06:23:40;;;;;;;5.40;1.53;;;11.20;99.90;;;;;;5057340;28;20464;-80
2022/11/04 06:26:11;;;;;;;5.90;1.67;;;11.20;99.90;;;;;;5060626;28;20515;-79
2022/11/04 06:28:38;;;;;;;5.57;1.50;;;11.30;99.90;;;;;;5057551;28;20483;-80
2022/11/04 06:31:08;;;;;;;6.07;1.83;;;11.20;99.90;;;;;;5063684;28;20495;-78
2022/11/04 06:33:36;;;;;;;5.97;1.70;;;11.30;99.90;;;;;;5056061;28;20453;-80
2022/11/04 06:36:06;;;;;;;5.00;1.40;;;11.30;99.90;;;;;;5038526;28;20592;-79
2022/11/04 06:38:35;;;;;;;5.57;1.70;;;11.30;99.90;;;;;;5049214;28;20560;-81
2022/11/04 06:41:02;;;;;;;4.60;1.30;;;11.30;99.90;;;;;;5058566;28;20539;-79
2022/11/04 06:43:28;;;;;;;4.73;1.50;;;11.30;99.90;;;;;;5058413;28;20449;-81
2022/11/04 06:45:56;;;;;;;4.83;1.90;;;11.30;99.90;;;;;;5058581;28;20891;-80
2022/11/04 06:48:23;;;;;;;4.67;2.03;;;11.30;99.90;;;;;;5056940;28;20468;-81
2022/11/04 06:50:51;;;;;;;5.00;1.47;;;11.30;99.90;;;;;;5059265;28;20460;-80
2022/11/04 06:53:18;;;;;;;6.17;1.90;;;11.30;99.90;;;;;;5061299;28;20472;-78
2022/11/04 06:55:45;;;;;;;5.27;1.73;;;11.30;99.90;;;;;;5059671;28;20480;-81
2022/11/04 06:58:12;;;;;;;6.10;2.37;;;11.30;99.90;;;;;;5061498;28;20479;-79
2022/11/04 07:00:39;;;;;;;5.90;1.80;;;11.20;99.90;;;;;;5063062;28;20447;-81
2022/11/04 07:03:07;;;;;;;3.90;1.50;;;11.20;99.90;;;;;;5061526;28;20462;-78
2022/11/04 07:05:33;;;;;;;4.40;1.70;;;11.30;99.90;;;;;;5063037;28;20494;-78
2022/11/04 07:08:02;;;;;;;5.67;1.77;;;11.30;99.90;;;;;;5062182;28;20476;-79
2022/11/04 07:10:28;;;;;;;5.93;1.83;;;11.30;99.90;;;;;;5062110;28;20511;-79
2022/11/04 07:12:55;;;;;;;8.10;1.73;;;11.30;99.90;;;;;;5061868;28;20532;-79
2022/11/04 07:15:22;;;;;;;7.90;2.27;;;11.40;99.90;;;;;;5060581;28;20524;-79
2022/11/04 07:17:49;;;;;;;4.20;2.27;;;11.40;99.90;;;;;;5055371;28;20472;-78
2022/11/04 07:20:16;;;;;;;5.33;1.63;;;11.40;99.90;;;;;;5058190;28;20987;-79
2022/11/04 07:22:43;;;;;;;9.20;2.33;;;11.50;99.90;;;;;;5056780;28;20638;-79
2022/11/04 07:25:11;;;;;;;3.70;1.40;;;11.50;99.90;;;;;;5058360;28;20451;-79
2022/11/04 07:27:38;;;;;;;3.70;1.40;;;11.60;99.90;;;;;;5057924;28;20483;-77
2022/11/04 07:30:06;;;;;;;5.57;1.60;;;11.60;99.90;;;;;;5056919;28;20455;-80
2022/11/04 07:32:33;;;;;;;2.90;1.50;;;11.50;99.90;;;;;;5058206;28;20480;-79
2022/11/04 07:35:00;;;;;;;5.07;1.80;;;11.60;99.90;;;;;;5057096;28;20449;-80
2022/11/04 07:37:26;;;;;;;4.10;1.70;;;11.60;99.90;;;;;;5058060;28;20483;-80
2022/11/04 07:39:53;;;;;;;7.43;1.50;;;11.70;99.90;;;;;;5058553;28;20518;-79
2022/11/04 07:42:21;;;;;;;4.03;1.47;;;11.70;99.90;;;;;;5053816;28;20451;-78
2022/11/04 07:44:48;;;;;;;4.60;1.93;;;11.70;99.90;;;;;;5053157;28;20457;-78
2022/11/04 07:47:15;;;;;;;5.80;1.90;;;11.70;99.90;;;;;;5053495;28;20440;-79
2022/11/04 07:49:42;;;;;;;5.03;2.07;;;11.80;99.90;;;;;;5053349;28;20455;-77
2022/11/04 07:52:08;;;;;;;3.73;1.70;;;11.80;99.90;;;;;;5056172;28;20459;-77
2022/11/04 07:54:36;;;;;;;5.33;1.67;;;11.80;99.90;;;;;;5057346;28;20812;-80
2022/11/04 07:57:03;;;;;;;3.23;1.53;;;11.80;99.90;;;;;;5057210;28;20525;-77
2022/11/04 07:59:31;;;;;;;6.10;2.47;;;11.80;99.90;;;;;;5055353;28;20853;-79
2022/11/04 08:01:57;;;;;;;6.80;2.10;;;11.90;99.90;;;;;;5056982;28;20544;-79
2022/11/04 08:04:24;;;;;;;5.20;1.77;;;11.90;99.90;;;;;;5056615;28;20460;-79
2022/11/04 08:06:51;;;;;;;5.57;2.07;;;12.00;99.90;;;;;;5056868;28;20567;-78
2022/11/04 08:09:18;;;;;;;5.13;2.33;;;12.00;99.90;;;;;;5055448;28;20468;-77
2022/11/04 08:11:45;;;;;;;10.40;2.37;;;12.10;99.90;;;;;;5056852;28;20890;-78
2022/11/04 08:14:12;;;;;;;3.90;1.40;;;12.20;99.90;;;;;;5057554;28;20451;-79
2022/11/04 08:16:40;;;;;;;2.77;1.50;;;12.20;99.90;;;;;;5058486;28;20576;-79
2022/11/04 08:19:07;;;;;;;6.07;2.13;;;12.30;99.90;;;;;;5061977;28;20576;-78
2022/11/04 08:21:34;;;;;;;5.67;2.03;;;12.30;99.90;;;;;;5065129;28;20531;-78
2022/11/04 08:24:04;;;;;;;7.67;2.20;;;12.30;99.90;;;;;;5061276;28;20446;-80
2022/11/04 08:26:30;;;;;;;4.10;1.53;;;12.40;99.90;;;;;;5060048;28;20461;-80
2022/11/04 08:28:58;;;;;;;4.83;1.90;;;12.50;99.90;;;;;;5058333;28;20489;-80
2022/11/04 08:31:27;;;;;;;2.53;1.50;;;12.60;99.90;;;;;;5059995;28;20463;-79
2022/11/04 08:33:56;;;;;;;4.93;1.40;;;12.60;99.90;;;;;;5059282;28;20487;-77
2022/11/04 08:36:26;;;;;;;3.77;1.80;;;12.50;99.90;;;;;;5058700;28;20578;-79
2022/11/04 08:38:53;;;;;;;3.40;1.87;;;12.60;99.90;;;;;;5058859;28;20470;-80
2022/11/04 08:41:22;;;;;;;11.00;2.10;;;12.60;99.90;;;;;;5060401;28;20470;-79
2022/11/04 08:43:50;;;;;;;4.10;1.60;;;12.50;99.90;;;;;;5059284;28;20540;-80
2022/11/04 08:46:17;;;;;;;4.57;1.30;;;12.60;99.90;;;;;;5058379;28;20447;-79
2022/11/04 08:48:44;;;;;;;4.03;1.40;;;12.50;99.90;;;;;;5058727;28;20505;-78
2022/11/04 08:51:16;;;;;;;5.40;1.80;;;12.60;99.90;;;;;;5064384;28;20477;-81
2022/11/04 08:53:43;;;;;;;6.87;2.00;;;12.60;99.90;;;;;;5063318;28;20479;-79
2022/11/04 08:56:12;;;;;;;6.33;1.77;;;12.60;99.90;;;;;;5063281;28;20593;-80
2022/11/04 08:58:39;;;;;;;5.33;1.87;;;12.60;99.90;;;;;;5059890;28;20919;-79
2022/11/04 09:01:07;;;;;;;4.67;1.70;;;12.50;99.90;;;;;;5059780;28;20541;-78
2022/11/04 09:03:35;;;;;;;4.93;2.70;;;12.60;99.90;;;;;;5061288;28;20460;-79
2022/11/04 09:06:02;;;;;;;8.93;2.53;;;12.50;99.90;;;;;;5055499;28;20489;-78
2022/11/04 09:08:30;;;;;;;4.50;1.80;;;12.50;99.90;;;;;;5044546;28;20542;-80
2022/11/04 09:10:57;;;;;;;5.60;1.70;;;12.50;99.90;;;;;;5058728;28;20847;-78
2022/11/04 09:13:24;;;;;;;5.33;1.70;;;12.50;99.90;;;;;;5059809;28;20520;-79
2022/11/04 09:15:51;;;;;;;3.40;1.80;;;12.50;99.90;;;;;;5059306;28;20450;-78
2022/11/04 09:18:17;;;;;;;3.30;1.60;;;12.50;99.90;;;;;;5057325;28;20513;-79
2022/11/04 09:20:44;;;;;;;5.80;2.17;;;12.50;99.90;;;;;;5058126;28;20920;-78
2022/11/04 09:23:11;;;;;;;6.67;1.90;;;12.50;99.90;;;;;;5059003;28;20449;-79
2022/11/04 09:25:39;;;;;;;6.97;1.90;;;12.40;99.90;;;;;;5058597;28;20446;-78
2022/11/04 09:28:06;;;;;;;7.90;2.27;;;12.50;99.90;;;;;;5058457;28;20491;-78
2022/11/04 09:30:33;;;;;;;5.40;1.60;;;12.50;99.90;;;;;;5057700;28;20534;-81
2022/11/04 09:33:00;;;;;;;5.50;1.77;;;12.50;99.90;;;;;;5057661;28;20453;-79
2022/11/04 09:35:27;;;;;;;8.17;2.00;;;12.50;99.90;;;;;;5059474;28;20569;-77
2022/11/04 09:37:54;;;;;;;3.63;1.70;;;12.60;99.90;;;;;;5056267;28;20496;-77
2022/11/04 09:40:23;;;;;;;4.03;1.63;;;12.60;99.90;;;;;;5057711;28;20453;-79
2022/11/04 09:43:14;;;;;;;3.80;1.83;;;12.60;99.90;;;;;;5056939;28;20536;-79
2022/11/04 09:45:43;;;;;;;5.60;1.50;;;12.60;99.90;;;;;;5047556;28;20542;-80
2022/11/04 09:48:19;;;;;;;4.73;2.07;;;12.70;99.90;;;;;;5034187;28;21039;-80
2022/11/04 09:50:50;;;;;;;5.70;1.90;;;12.70;99.90;;;;;;5046005;28;20622;-80
2022/11/04 09:53:21;;;;;;;4.47;1.50;;;12.60;99.90;;;;;;5056366;28;20516;-80
2022/11/04 09:55:54;;;;;;;3.57;1.60;;;12.60;99.90;;;;;;5058411;28;20473;-79
2022/11/04 09:58:22;;;;;;;5.93;1.80;;;12.70;99.90;;;;;;5062268;28;20895;-79
2022/11/04 10:00:57;;;;;;;7.10;2.10;;;12.80;99.90;;;;;;5063306;28;20551;-80
2022/11/04 10:03:45;;;;;;;4.00;1.93;;;12.80;99.90;;;;;;5063788;28;20486;-79
2022/11/04 10:06:25;;;;;;;3.97;1.70;;;13.00;99.90;;;;;;5060795;28;21056;-78
2022/11/04 10:09:02;;;;;;;4.83;1.87;;;13.10;99.90;;;;;;5062765;28;20550;-79
2022/11/04 10:11:38;;;;;;;5.50;1.67;;;13.30;99.90;;;;;;5062883;28;20447;-78
2022/11/04 10:14:24;;;;;;;5.40;1.70;;;13.40;99.90;;;;;;5060587;28;20461;-79
2022/11/04 10:17:01;;;;;;;5.83;1.80;;;13.50;99.90;;;;;;5061682;28;20486;-80
2022/11/04 10:19:51;;;;;;;3.60;1.80;;;13.80;99.90;;;;;;5061892;28;20462;-79
2022/11/04 10:22:29;;;;;;;5.07;1.30;;;14.00;99.90;;;;;;5063789;28;20463;-78
2022/11/04 10:25:04;;;;;;;7.73;1.97;;;14.10;99.90;;;;;;5041982;28;20544;-78
2022/11/04 10:27:36;;;;;;;3.40;1.50;;;14.30;99.90;;;;;;5044253;28;20508;-79
2022/11/04 10:30:10;;;;;;;4.50;1.60;;;14.30;99.90;;;;;;5041779;28;20462;-79
2022/11/04 10:32:46;;;;;;;2.60;1.40;;;14.20;99.90;;;;;;5044228;28;20534;-79
2022/11/04 10:35:21;;;;;;;4.13;1.60;;;14.20;99.90;;;;;;5041676;28;20464;-79
2022/11/04 10:37:53;;;;;;;5.90;1.47;;;14.20;99.90;;;;;;5043867;28;20557;-79
2022/11/04 10:40:25;;;;;;;3.60;1.73;;;14.20;99.90;;;;;;5056515;28;20443;-80
2022/11/04 10:42:52;;;;;;;9.50;2.03;;;14.20;99.90;;;;;;5063596;28;20804;-81
2022/11/04 10:45:26;;;;;;;3.17;1.27;;;14.10;99.90;;;;;;5062483;28;20453;-79
2022/11/04 10:47:59;;;;;;;4.30;1.50;;;14.20;99.90;;;;;;5063591;28;20467;-80
2022/11/04 10:50:31;;;;;;;5.23;1.57;;;14.30;99.90;;;;;;5062275;28;20453;-80
2022/11/04 10:53:15;;;;;;;4.43;1.50;;;14.50;99.90;;;;;;5063273;28;20454;-78
2022/11/04 10:55:50;;;;;;;3.67;1.50;;;14.60;99.90;;;;;;5061533;28;21202;-78
2022/11/04 10:58:21;;;;;;;7.67;1.87;;;14.70;99.90;;;;;;5060743;28;20846;-79
2022/11/04 11:00:50;;;;;;;4.07;1.47;;;15.20;99.90;;;;;;5062997;28;20458;-79
2022/11/04 11:03:37;;;;;;;5.77;1.80;;;15.80;99.90;;;;;;5061461;28;20454;-80
2022/11/04 11:06:23;;;;;;;11.30;1.90;;;16.00;99.90;;;;;;5057259;28;20822;-80
2022/11/04 11:08:52;;;;;;;5.77;1.70;;;16.60;99.90;;;;;;5061601;28;20478;-80
2022/11/04 11:11:36;;;;;;;4.33;1.30;;;17.30;99.90;;;;;;5052530;28;20986;-79
2022/11/04 11:14:03;;;;;;;7.63;1.67;;;17.10;99.90;;;;;;5053551;28;20439;-82
2022/11/04 11:16:31;;;;;;;7.10;1.30;;;16.80;99.90;;;;;;5064723;28;21077;-79
2022/11/04 11:19:13;;;;;;;7.63;1.70;;;16.30;99.90;;;;;;5062845;28;20462;-81
2022/11/04 11:21:44;;;;;;;5.13;1.67;;;16.00;99.90;;;;;;5064485;28;20436;-80
2022/11/04 11:24:18;;;;;;;4.90;1.80;;;15.70;99.90;;;;;;5064665;28;20952;-78
2022/11/04 11:26:48;;;;;;;5.63;1.50;;;15.50;99.90;;;;;;5064448;28;20512;-80
2022/11/04 11:29:21;;;;;;;5.60;1.50;;;15.40;99.90;;;;;;5061598;28;20483;-80
2022/11/04 11:31:51;;;;;;;4.67;1.40;;;15.10;99.90;;;;;;5064482;28;20790;-80
2022/11/04 11:34:25;;;;;;;3.60;1.23;;;14.90;99.90;;;;;;5061762;28;20822;-78
2022/11/04 11:36:53;;;;;;;4.57;1.30;;;14.70;99.90;;;;;;5051730;28;20503;-80
2022/11/04 11:39:23;;;;;;;4.70;1.47;;;14.60;99.90;;;;;;5061313;28;20531;-80
2022/11/04 11:41:54;;;;;;;4.00;1.27;;;14.50;99.90;;;;;;5063292;28;20521;-81
2022/11/04 11:44:30;;;;;;;5.43;1.70;;;14.30;99.90;;;;;;5063765;28;20451;-81
2022/11/04 11:47:00;;;;;;;4.03;1.60;;;14.30;99.90;;;;;;5062083;28;20947;-81
2022/11/04 11:49:30;;;;;;;6.07;2.10;;;14.10;99.90;;;;;;5061308;28;20477;-79
2022/11/04 11:52:17;;;;;;;5.90;1.73;;;14.00;99.90;;;;;;5056814;28;20452;-81
2022/11/04 11:54:48;;;;;;;7.43;1.43;;;13.90;99.90;;;;;;5037331;28;20442;-78
2022/11/04 11:57:32;;;;;;;6.00;1.93;;;13.80;99.90;;;;;;5036994;28;20474;-79
2022/11/04 12:00:08;;;;;;;5.90;1.90;;;13.70;99.90;;;;;;5102621;22;20512;-79
2022/11/04 12:02:44;;;;;;;5.67;1.77;;;13.70;99.90;;;;;;5051669;28;20531;-78
2022/11/04 12:05:12;;;;;;;7.80;2.37;;;13.70;99.90;;;;;;5059759;28;20436;-79
2022/11/04 12:07:48;;;;;;;4.63;1.63;;;13.60;99.90;;;;;;5059151;28;20448;-79
2022/11/04 12:10:26;;;;;;;9.17;2.47;;;13.60;99.90;;;;;;5053480;28;20567;-79
2022/11/04 12:13:03;;;;;;;8.63;2.73;;;13.70;99.90;;;;;;5041630;28;20457;-79
2022/11/04 12:15:41;;;;;;;5.87;2.43;;;13.80;99.90;;;;;;5044220;28;20475;-79
2022/11/04 12:18:32;;;;;;;5.07;1.90;;;13.80;99.90;;;;;;5042006;28;20476;-78
2022/11/04 12:21:06;;;;;;;5.27;1.73;;;13.90;99.90;;;;;;5038071;28;20475;-80
2022/11/04 12:23:45;;;;;;;5.83;1.73;;;14.00;99.90;;;;;;5042040;28;20538;-79
2022/11/04 12:26:23;;;;;;;5.20;1.70;;;14.10;99.90;;;;;;5039716;28;20537;-79
2022/11/04 12:29:03;;;;;;;5.60;1.60;;;14.10;99.90;;;;;;5040165;28;20447;-79
2022/11/04 12:31:42;;;;;;;5.13;1.33;;;14.20;99.90;;;;;;5043675;28;20456;-79
2022/11/04 12:34:20;;;;;;;6.97;1.87;;;14.20;99.90;;;;;;5049391;28;20561;-80
2022/11/04 12:37:00;;;;;;;6.53;1.63;;;14.30;99.90;;;;;;5041668;28;20457;-80
2022/11/04 12:39:44;;;;;;;5.37;1.53;;;14.30;99.90;;;;;;5021461;28;20554;-78
2022/11/04 12:42:21;;;;;;;7.07;1.80;;;14.30;99.90;;;;;;5022403;28;20499;-78
2022/11/04 12:44:57;;;;;;;6.23;2.10;;;14.30;99.90;;;;;;5056829;28;20484;-78
2022/11/04 12:47:34;;;;;;;4.73;1.57;;;14.30;99.90;;;;;;5060870;28;20987;-79
2022/11/04 12:50:15;;;;;;;8.10;1.80;;;14.20;99.90;;;;;;5052720;28;20554;-80
2022/11/04 12:53:09;;;;;;;6.30;2.20;;;14.20;99.90;;;;;;5060352;28;20996;-79
2022/11/04 12:55:45;;;;;;;4.47;1.90;;;14.20;99.90;;;;;;5041594;28;20460;-78
2022/11/04 12:58:34;;;;;;;3.03;1.60;;;14.30;99.90;;;;;;5039064;28;20536;-79
2022/11/04 13:01:05;;;;;;;3.50;1.60;;;14.30;99.90;;;;;;5052229;28;20477;-80
2022/11/04 13:03:37;;;;;;;4.17;1.50;;;14.30;99.90;;;;;;5056431;28;20516;-79
2022/11/04 13:06:12;;;;;;;4.00;1.43;;;14.30;99.90;;;;;;5026500;28;20442;-80
2022/11/04 13:08:43;;;;;;;4.63;1.53;;;14.20;99.90;;;;;;5029428;28;20453;-79
2022/11/04 13:11:22;;;;;;;5.83;1.70;;;14.30;99.90;;;;;;5053766;28;20474;-79
2022/11/04 13:13:54;;;;;;;3.87;1.53;;;14.30;99.90;;;;;;5041813;28;20470;-78
2022/11/04 13:16:21;;;;;;;6.83;1.73;;;14.30;99.90;;;;;;5041693;28;20452;-80
2022/11/04 13:18:50;;;;;;;4.27;1.80;;;14.30;99.90;;;;;;5050425;28;20490;-79
2022/11/04 13:21:23;;;;;;;8.73;1.57;;;14.30;99.90;;;;;;5060511;28;20542;-79
2022/11/04 13:23:54;;;;;;;5.90;1.80;;;14.30;99.90;;;;;;5059925;28;21063;-79
2022/11/04 13:26:21;;;;;;;6.43;1.87;;;14.30;99.90;;;;;;5061089;28;20511;-79
2022/11/04 13:28:58;;;;;;;6.30;2.07;;;14.30;99.90;;;;;;5059600;28;20472;-79
2022/11/04 13:31:34;;;;;;;8.10;3.20;;;14.30;99.90;;;;;;5060244;28;20454;-77
2022/11/04 13:34:07;;;;;;;6.73;3.30;;;14.20;99.90;;;;;;5043879;28;20448;-80
2022/11/04 13:36:41;;;;;;;5.90;4.00;;;14.10;99.90;;;;;;5043291;28;20462;-78